sensor_id;sensor_type;location;lat;lon;timestamp;temperature;humidity
4386;DHT22;2207;53.540;10.042;2023-05-20T00:01:27;11.20;48.50
4386;DHT22;2207;53.540;10.042;2023-05-20T00:03:53;11.20;48.50
4386;DHT22;2207;53.540;10.042;2023-05-20T00:06:20;11.10;48.40
4386;DHT22;2207;53.540;10.042;2023-05-20T00:08:47;11.10;48.40
4386;DHT22;2207;53.540;10.042;2023-05-20T00:11:15;11.10;48.60
4386;DHT22;2207;53.540;10.042;2023-05-20T00:13:41;11.10;48.70
4386;DHT22;2207;53.540;10.042;2023-05-20T00:16:08;11.10;48.60
4386;DHT22;2207;53.540;10.042;2023-05-20T00:18:35;11.20;48.70
4386;DHT22;2207;53.540;10.042;2023-05-20T00:21:01;11.20;48.70
4386;DHT22;2207;53.540;10.042;2023-05-20T00:23:28;11.20;48.60
4386;DHT22;2207;53.540;10.042;2023-05-20T00:25:55;11.20;48.60
4386;DHT22;2207;53.540;10.042;2023-05-20T00:28:23;11.20;48.60
4386;DHT22;2207;53.540;10.042;2023-05-20T00:30:49;11.20;48.70
4386;DHT22;2207;53.540;10.042;2023-05-20T00:33:16;11.20;48.70
4386;DHT22;2207;53.540;10.042;2023-05-20T00:35:43;11.20;48.70
4386;DHT22;2207;53.540;10.042;2023-05-20T00:38:09;11.20;48.70
4386;DHT22;2207;53.540;10.042;2023-05-20T00:40:36;11.20;48.80
4386;DHT22;2207;53.540;10.042;2023-05-20T00:43:03;11.20;48.80
4386;DHT22;2207;53.540;10.042;2023-05-20T00:45:31;11.10;48.70
4386;DHT22;2207;53.540;10.042;2023-05-20T00:47:58;11.10;48.70
4386;DHT22;2207;53.540;10.042;2023-05-20T00:50:26;11.10;48.70
4386;DHT22;2207;53.540;10.042;2023-05-20T00:52:53;11.10;48.70
4386;DHT22;2207;53.540;10.042;2023-05-20T00:55:20;11.10;48.70
4386;DHT22;2207;53.540;10.042;2023-05-20T00:57:47;11.10;48.70
4386;DHT22;2207;53.540;10.042;2023-05-20T01:00:14;11.10;48.60
4386;DHT22;2207;53.540;10.042;2023-05-20T01:02:43;11.10;48.60
4386;DHT22;2207;53.540;10.042;2023-05-20T01:05:09;11.10;48.60
4386;DHT22;2207;53.540;10.042;2023-05-20T01:07:37;11.10;48.70
4386;DHT22;2207;53.540;10.042;2023-05-20T01:10:04;11.10;48.70
4386;DHT22;2207;53.540;10.042;2023-05-20T01:12:36;11.10;48.70
4386;DHT22;2207;53.540;10.042;2023-05-20T01:15:07;11.10;48.80
4386;DHT22;2207;53.540;10.042;2023-05-20T01:17:37;11.00;48.80
4386;DHT22;2207;53.540;10.042;2023-05-20T01:20:07;11.00;48.80
4386;DHT22;2207;53.540;10.042;2023-05-20T01:22:37;11.00;48.90
4386;DHT22;2207;53.540;10.042;2023-05-20T01:25:04;11.00;48.90
4386;DHT22;2207;53.540;10.042;2023-05-20T01:27:31;11.00;49.00
4386;DHT22;2207;53.540;10.042;2023-05-20T01:29:58;11.00;49.00
4386;DHT22;2207;53.540;10.042;2023-05-20T01:32:29;11.00;49.00
4386;DHT22;2207;53.540;10.042;2023-05-20T01:34:57;11.00;49.00
4386;DHT22;2207;53.540;10.042;2023-05-20T01:37:26;11.00;49.10
4386;DHT22;2207;53.540;10.042;2023-05-20T01:39:55;11.00;49.10
4386;DHT22;2207;53.540;10.042;2023-05-20T01:42:23;11.00;49.20
4386;DHT22;2207;53.540;10.042;2023-05-20T01:44:52;11.00;49.30
4386;DHT22;2207;53.540;10.042;2023-05-20T01:47:18;11.00;49.30
4386;DHT22;2207;53.540;10.042;2023-05-20T01:49:45;10.90;49.30
4386;DHT22;2207;53.540;10.042;2023-05-20T01:52:12;10.90;49.30
4386;DHT22;2207;53.540;10.042;2023-05-20T01:54:38;10.90;49.50
4386;DHT22;2207;53.540;10.042;2023-05-20T01:57:06;10.90;49.70
4386;DHT22;2207;53.540;10.042;2023-05-20T01:59:33;10.80;49.70
4386;DHT22;2207;53.540;10.042;2023-05-20T02:01:59;10.80;49.70
4386;DHT22;2207;53.540;10.042;2023-05-20T02:04:26;10.80;50.00
4386;DHT22;2207;53.540;10.042;2023-05-20T02:06:53;10.70;50.10
4386;DHT22;2207;53.540;10.042;2023-05-20T02:09:20;10.70;50.20
4386;DHT22;2207;53.540;10.042;2023-05-20T02:11:47;10.70;50.20
4386;DHT22;2207;53.540;10.042;2023-05-20T02:14:15;10.70;50.30
4386;DHT22;2207;53.540;10.042;2023-05-20T02:16:41;10.60;50.50
4386;DHT22;2207;53.540;10.042;2023-05-20T02:19:08;10.60;51.30
4386;DHT22;2207;53.540;10.042;2023-05-20T02:21:37;10.60;51.20
4386;DHT22;2207;53.540;10.042;2023-05-20T02:24:04;10.50;51.20
4386;DHT22;2207;53.540;10.042;2023-05-20T02:26:31;10.50;51.70
4386;DHT22;2207;53.540;10.042;2023-05-20T02:28:58;10.50;52.00
4386;DHT22;2207;53.540;10.042;2023-05-20T02:31:26;10.50;52.40
4386;DHT22;2207;53.540;10.042;2023-05-20T02:33:53;10.40;52.60
4386;DHT22;2207;53.540;10.042;2023-05-20T02:36:20;10.40;52.70
4386;DHT22;2207;53.540;10.042;2023-05-20T02:38:47;10.40;53.10
4386;DHT22;2207;53.540;10.042;2023-05-20T02:41:13;10.30;53.30
4386;DHT22;2207;53.540;10.042;2023-05-20T02:43:40;10.30;53.60
4386;DHT22;2207;53.540;10.042;2023-05-20T02:46:08;10.30;54.00
4386;DHT22;2207;53.540;10.042;2023-05-20T02:48:37;10.30;54.30
4386;DHT22;2207;53.540;10.042;2023-05-20T02:51:04;10.20;54.70
4386;DHT22;2207;53.540;10.042;2023-05-20T02:53:30;10.20;54.90
4386;DHT22;2207;53.540;10.042;2023-05-20T02:55:57;10.30;55.30
4386;DHT22;2207;53.540;10.042;2023-05-20T02:58:24;10.20;55.60
4386;DHT22;2207;53.540;10.042;2023-05-20T03:00:52;10.20;56.00
4386;DHT22;2207;53.540;10.042;2023-05-20T03:03:18;10.20;56.80
4386;DHT22;2207;53.540;10.042;2023-05-20T03:08:29;10.20;56.30
4386;DHT22;2207;53.540;10.042;2023-05-20T03:10:58;10.20;56.60
4386;DHT22;2207;53.540;10.042;2023-05-20T03:13:25;10.30;57.10
4386;DHT22;2207;53.540;10.042;2023-05-20T03:15:52;10.20;57.10
4386;DHT22;2207;53.540;10.042;2023-05-20T03:18:18;10.20;57.40
4386;DHT22;2207;53.540;10.042;2023-05-20T03:20:45;10.20;57.40
4386;DHT22;2207;53.540;10.042;2023-05-20T03:23:12;10.20;57.60
4386;DHT22;2207;53.540;10.042;2023-05-20T03:25:40;10.20;57.80
4386;DHT22;2207;53.540;10.042;2023-05-20T03:28:07;10.20;57.90
4386;DHT22;2207;53.540;10.042;2023-05-20T03:30:34;10.20;58.30
4386;DHT22;2207;53.540;10.042;2023-05-20T03:33:00;10.20;58.40
4386;DHT22;2207;53.540;10.042;2023-05-20T03:35:27;10.20;58.30
4386;DHT22;2207;53.540;10.042;2023-05-20T03:37:54;10.30;58.70
4386;DHT22;2207;53.540;10.042;2023-05-20T03:40:21;10.30;58.80
4386;DHT22;2207;53.540;10.042;2023-05-20T03:42:49;10.30;59.00
4386;DHT22;2207;53.540;10.042;2023-05-20T03:45:16;10.30;59.10
4386;DHT22;2207;53.540;10.042;2023-05-20T03:47:43;10.40;59.20
4386;DHT22;2207;53.540;10.042;2023-05-20T03:50:10;10.40;59.30
4386;DHT22;2207;53.540;10.042;2023-05-20T03:52:36;10.40;59.40
4386;DHT22;2207;53.540;10.042;2023-05-20T03:55:05;10.50;59.50
4386;DHT22;2207;53.540;10.042;2023-05-20T03:57:32;10.50;59.70
4386;DHT22;2207;53.540;10.042;2023-05-20T04:00:02;10.50;59.80
4386;DHT22;2207;53.540;10.042;2023-05-20T04:02:34;10.60;59.90
4386;DHT22;2207;53.540;10.042;2023-05-20T04:05:01;10.60;60.10
4386;DHT22;2207;53.540;10.042;2023-05-20T04:07:28;10.60;60.40
4386;DHT22;2207;53.540;10.042;2023-05-20T04:09:55;10.60;60.60
4386;DHT22;2207;53.540;10.042;2023-05-20T04:12:23;10.70;60.90
4386;DHT22;2207;53.540;10.042;2023-05-20T04:14:55;10.70;61.00
4386;DHT22;2207;53.540;10.042;2023-05-20T04:17:24;10.70;61.00
4386;DHT22;2207;53.540;10.042;2023-05-20T04:19:50;10.80;61.30
4386;DHT22;2207;53.540;10.042;2023-05-20T04:22:17;10.90;61.40
4386;DHT22;2207;53.540;10.042;2023-05-20T04:24:44;10.90;61.60
4386;DHT22;2207;53.540;10.042;2023-05-20T04:27:11;10.90;61.70
4386;DHT22;2207;53.540;10.042;2023-05-20T04:29:38;11.00;62.00
4386;DHT22;2207;53.540;10.042;2023-05-20T04:32:06;11.00;62.20
4386;DHT22;2207;53.540;10.042;2023-05-20T04:34:36;11.00;63.30
4386;DHT22;2207;53.540;10.042;2023-05-20T04:37:03;11.10;62.80
4386;DHT22;2207;53.540;10.042;2023-05-20T04:39:32;11.20;62.70
4386;DHT22;2207;53.540;10.042;2023-05-20T04:42:01;11.30;62.90
4386;DHT22;2207;53.540;10.042;2023-05-20T04:44:28;11.40;62.80
4386;DHT22;2207;53.540;10.042;2023-05-20T04:46:55;11.50;62.90
4386;DHT22;2207;53.540;10.042;2023-05-20T04:49:22;11.60;62.90
4386;DHT22;2207;53.540;10.042;2023-05-20T04:51:51;11.60;63.00
4386;DHT22;2207;53.540;10.042;2023-05-20T04:54:20;11.60;63.10
4386;DHT22;2207;53.540;10.042;2023-05-20T04:56:46;11.70;63.30
4386;DHT22;2207;53.540;10.042;2023-05-20T04:59:16;11.80;63.30
4386;DHT22;2207;53.540;10.042;2023-05-20T05:01:42;12.00;63.20
4386;DHT22;2207;53.540;10.042;2023-05-20T05:04:09;12.10;62.90
4386;DHT22;2207;53.540;10.042;2023-05-20T05:06:36;12.20;62.60
4386;DHT22;2207;53.540;10.042;2023-05-20T05:09:04;12.30;62.40
4386;DHT22;2207;53.540;10.042;2023-05-20T05:11:32;12.40;62.50
4386;DHT22;2207;53.540;10.042;2023-05-20T05:13:59;12.50;62.40
4386;DHT22;2207;53.540;10.042;2023-05-20T05:16:25;12.70;62.40
4386;DHT22;2207;53.540;10.042;2023-05-20T05:18:52;12.90;62.50
4386;DHT22;2207;53.540;10.042;2023-05-20T05:21:19;13.40;62.70
4386;DHT22;2207;53.540;10.042;2023-05-20T05:23:45;14.00;64.10
4386;DHT22;2207;53.540;10.042;2023-05-20T05:26:14;15.00;61.90
4386;DHT22;2207;53.540;10.042;2023-05-20T05:28:41;16.00;59.50
4386;DHT22;2207;53.540;10.042;2023-05-20T05:31:08;16.90;58.20
4386;DHT22;2207;53.540;10.042;2023-05-20T05:33:35;17.60;56.80
4386;DHT22;2207;53.540;10.042;2023-05-20T05:36:01;17.90;55.40
4386;DHT22;2207;53.540;10.042;2023-05-20T05:38:29;18.40;55.10
4386;DHT22;2207;53.540;10.042;2023-05-20T05:40:55;18.70;54.00
4386;DHT22;2207;53.540;10.042;2023-05-20T05:43:23;19.30;53.30
4386;DHT22;2207;53.540;10.042;2023-05-20T05:45:50;19.60;52.10
4386;DHT22;2207;53.540;10.042;2023-05-20T05:48:17;20.10;50.10
4386;DHT22;2207;53.540;10.042;2023-05-20T05:50:44;20.30;49.70
4386;DHT22;2207;53.540;10.042;2023-05-20T05:53:11;20.40;49.50
4386;DHT22;2207;53.540;10.042;2023-05-20T05:55:38;21.00;49.10
4386;DHT22;2207;53.540;10.042;2023-05-20T05:58:04;21.80;48.50
4386;DHT22;2207;53.540;10.042;2023-05-20T06:00:33;22.40;45.10
4386;DHT22;2207;53.540;10.042;2023-05-20T06:02:59;22.30;43.70
4386;DHT22;2207;53.540;10.042;2023-05-20T06:05:26;21.80;43.30
4386;DHT22;2207;53.540;10.042;2023-05-20T06:07:53;21.40;43.90
4386;DHT22;2207;53.540;10.042;2023-05-20T06:10:20;21.30;44.60
4386;DHT22;2207;53.540;10.042;2023-05-20T06:12:46;21.30;42.90
4386;DHT22;2207;53.540;10.042;2023-05-20T06:15:13;21.10;43.80
4386;DHT22;2207;53.540;10.042;2023-05-20T06:17:41;21.00;42.70
4386;DHT22;2207;53.540;10.042;2023-05-20T06:20:09;20.60;43.80
4386;DHT22;2207;53.540;10.042;2023-05-20T06:22:35;20.60;44.40
4386;DHT22;2207;53.540;10.042;2023-05-20T06:25:02;20.90;43.70
4386;DHT22;2207;53.540;10.042;2023-05-20T06:27:30;21.40;43.00
4386;DHT22;2207;53.540;10.042;2023-05-20T06:29:57;21.80;42.10
4386;DHT22;2207;53.540;10.042;2023-05-20T06:32:24;21.70;41.40
4386;DHT22;2207;53.540;10.042;2023-05-20T06:34:52;21.90;42.30
4386;DHT22;2207;53.540;10.042;2023-05-20T06:37:18;22.90;41.60
4386;DHT22;2207;53.540;10.042;2023-05-20T06:39:48;24.10;40.00
4386;DHT22;2207;53.540;10.042;2023-05-20T06:42:18;24.70;38.70
4386;DHT22;2207;53.540;10.042;2023-05-20T06:44:44;25.80;37.50
4386;DHT22;2207;53.540;10.042;2023-05-20T06:47:13;27.10;36.00
4386;DHT22;2207;53.540;10.042;2023-05-20T06:49:40;28.50;34.30
4386;DHT22;2207;53.540;10.042;2023-05-20T06:52:08;29.30;32.40
4386;DHT22;2207;53.540;10.042;2023-05-20T06:54:36;29.80;31.90
4386;DHT22;2207;53.540;10.042;2023-05-20T06:57:05;30.40;30.70
4386;DHT22;2207;53.540;10.042;2023-05-20T06:59:32;30.80;30.30
4386;DHT22;2207;53.540;10.042;2023-05-20T07:01:59;30.40;29.60
4386;DHT22;2207;53.540;10.042;2023-05-20T07:04:26;30.10;29.60
4386;DHT22;2207;53.540;10.042;2023-05-20T07:06:53;30.00;29.90
4386;DHT22;2207;53.540;10.042;2023-05-20T07:09:21;29.80;29.10
4386;DHT22;2207;53.540;10.042;2023-05-20T07:11:48;28.70;30.00
4386;DHT22;2207;53.540;10.042;2023-05-20T07:14:15;27.90;30.60
4386;DHT22;2207;53.540;10.042;2023-05-20T07:16:41;27.20;31.60
4386;DHT22;2207;53.540;10.042;2023-05-20T07:19:08;26.80;31.70
4386;DHT22;2207;53.540;10.042;2023-05-20T07:21:35;26.10;32.80
4386;DHT22;2207;53.540;10.042;2023-05-20T07:24:01;26.00;33.70
4386;DHT22;2207;53.540;10.042;2023-05-20T07:26:29;26.30;33.10
4386;DHT22;2207;53.540;10.042;2023-05-20T07:28:58;26.00;33.30
4386;DHT22;2207;53.540;10.042;2023-05-20T07:31:24;25.80;33.90
4386;DHT22;2207;53.540;10.042;2023-05-20T07:33:51;26.00;33.80
4386;DHT22;2207;53.540;10.042;2023-05-20T07:36:18;25.40;34.20
4386;DHT22;2207;53.540;10.042;2023-05-20T07:38:44;24.90;35.30
4386;DHT22;2207;53.540;10.042;2023-05-20T07:41:11;24.50;35.30
4386;DHT22;2207;53.540;10.042;2023-05-20T07:43:39;24.10;35.90
4386;DHT22;2207;53.540;10.042;2023-05-20T07:46:06;24.10;36.00
4386;DHT22;2207;53.540;10.042;2023-05-20T07:48:32;24.20;35.90
4386;DHT22;2207;53.540;10.042;2023-05-20T07:51:01;24.30;36.10
4386;DHT22;2207;53.540;10.042;2023-05-20T07:53:28;24.90;35.20
4386;DHT22;2207;53.540;10.042;2023-05-20T07:55:55;25.20;34.70
4386;DHT22;2207;53.540;10.042;2023-05-20T07:58:21;25.60;33.90
4386;DHT22;2207;53.540;10.042;2023-05-20T08:00:49;25.40;34.00
4386;DHT22;2207;53.540;10.042;2023-05-20T08:03:16;25.10;34.00
4386;DHT22;2207;53.540;10.042;2023-05-20T08:05:43;24.90;34.60
4386;DHT22;2207;53.540;10.042;2023-05-20T08:08:10;24.90;34.60
4386;DHT22;2207;53.540;10.042;2023-05-20T08:10:37;24.70;35.00
4386;DHT22;2207;53.540;10.042;2023-05-20T08:13:03;24.50;34.90
4386;DHT22;2207;53.540;10.042;2023-05-20T08:15:30;23.40;35.80
4386;DHT22;2207;53.540;10.042;2023-05-20T08:17:58;21.80;38.30
4386;DHT22;2207;53.540;10.042;2023-05-20T08:20:25;20.70;40.40
4386;DHT22;2207;53.540;10.042;2023-05-20T08:22:52;20.20;41.20
4386;DHT22;2207;53.540;10.042;2023-05-20T08:25:18;19.80;42.10
4386;DHT22;2207;53.540;10.042;2023-05-20T08:27:45;19.40;42.80
4386;DHT22;2207;53.540;10.042;2023-05-20T08:30:12;19.00;43.30
4386;DHT22;2207;53.540;10.042;2023-05-20T08:32:39;18.80;44.10
4386;DHT22;2207;53.540;10.042;2023-05-20T08:35:08;18.70;43.90
4386;DHT22;2207;53.540;10.042;2023-05-20T08:37:34;18.40;44.60
4386;DHT22;2207;53.540;10.042;2023-05-20T08:40:01;18.40;44.60
4386;DHT22;2207;53.540;10.042;2023-05-20T08:42:29;18.50;44.40
4386;DHT22;2207;53.540;10.042;2023-05-20T08:44:57;18.50;44.30
4386;DHT22;2207;53.540;10.042;2023-05-20T08:47:25;18.40;44.60
4386;DHT22;2207;53.540;10.042;2023-05-20T08:49:52;18.40;44.70
4386;DHT22;2207;53.540;10.042;2023-05-20T08:52:20;18.30;44.90
4386;DHT22;2207;53.540;10.042;2023-05-20T08:54:50;18.40;44.70
4386;DHT22;2207;53.540;10.042;2023-05-20T08:57:18;18.50;44.80
4386;DHT22;2207;53.540;10.042;2023-05-20T08:59:46;18.70;44.40
4386;DHT22;2207;53.540;10.042;2023-05-20T09:02:13;18.60;43.90
4386;DHT22;2207;53.540;10.042;2023-05-20T09:04:40;18.40;44.40
4386;DHT22;2207;53.540;10.042;2023-05-20T09:07:06;18.50;44.50
4386;DHT22;2207;53.540;10.042;2023-05-20T09:09:34;18.60;44.30
4386;DHT22;2207;53.540;10.042;2023-05-20T09:12:02;18.60;44.30
4386;DHT22;2207;53.540;10.042;2023-05-20T09:14:29;18.50;44.20
4386;DHT22;2207;53.540;10.042;2023-05-20T09:16:56;18.40;44.30
4386;DHT22;2207;53.540;10.042;2023-05-20T09:19:22;18.50;44.70
4386;DHT22;2207;53.540;10.042;2023-05-20T09:21:51;18.60;44.50
4386;DHT22;2207;53.540;10.042;2023-05-20T09:24:21;18.60;44.00
4386;DHT22;2207;53.540;10.042;2023-05-20T09:26:49;18.40;44.20
4386;DHT22;2207;53.540;10.042;2023-05-20T09:29:16;18.50;44.30
4386;DHT22;2207;53.540;10.042;2023-05-20T09:31:44;18.60;43.70
4386;DHT22;2207;53.540;10.042;2023-05-20T09:34:11;18.60;43.40
4386;DHT22;2207;53.540;10.042;2023-05-20T09:36:38;18.60;43.40
4386;DHT22;2207;53.540;10.042;2023-05-20T09:39:08;18.60;43.60
4386;DHT22;2207;53.540;10.042;2023-05-20T09:41:37;18.90;42.80
4386;DHT22;2207;53.540;10.042;2023-05-20T09:44:06;19.10;41.90
4386;DHT22;2207;53.540;10.042;2023-05-20T09:46:34;19.00;42.10
4386;DHT22;2207;53.540;10.042;2023-05-20T09:49:02;19.00;41.70
4386;DHT22;2207;53.540;10.042;2023-05-20T09:51:31;18.80;41.60
4386;DHT22;2207;53.540;10.042;2023-05-20T09:53:59;18.60;42.10
4386;DHT22;2207;53.540;10.042;2023-05-20T09:56:28;18.50;42.30
4386;DHT22;2207;53.540;10.042;2023-05-20T09:58:57;18.50;42.60
4386;DHT22;2207;53.540;10.042;2023-05-20T10:01:26;18.30;42.90
4386;DHT22;2207;53.540;10.042;2023-05-20T10:03:53;18.10;43.60
4386;DHT22;2207;53.540;10.042;2023-05-20T10:06:34;18.00;44.10
4386;DHT22;2207;53.540;10.042;2023-05-20T10:09:17;18.10;44.30
4386;DHT22;2207;53.540;10.042;2023-05-20T10:11:51;18.30;43.90
4386;DHT22;2207;53.540;10.042;2023-05-20T10:14:39;18.60;43.20
4386;DHT22;2207;53.540;10.042;2023-05-20T10:17:16;18.60;43.00
4386;DHT22;2207;53.540;10.042;2023-05-20T10:19:43;18.30;43.30
4386;DHT22;2207;53.540;10.042;2023-05-20T10:22:10;18.30;43.80
4386;DHT22;2207;53.540;10.042;2023-05-20T10:24:39;18.50;43.80
4386;DHT22;2207;53.540;10.042;2023-05-20T10:27:07;18.90;42.70
4386;DHT22;2207;53.540;10.042;2023-05-20T10:29:42;19.10;42.10
4386;DHT22;2207;53.540;10.042;2023-05-20T10:32:10;19.00;42.10
4386;DHT22;2207;53.540;10.042;2023-05-20T10:34:45;18.80;42.60
4386;DHT22;2207;53.540;10.042;2023-05-20T10:37:23;18.50;43.60
4386;DHT22;2207;53.540;10.042;2023-05-20T10:39:51;18.50;43.90
4386;DHT22;2207;53.540;10.042;2023-05-20T10:42:27;18.50;44.00
4386;DHT22;2207;53.540;10.042;2023-05-20T10:44:54;18.50;44.40
4386;DHT22;2207;53.540;10.042;2023-05-20T10:47:22;18.70;44.30
4386;DHT22;2207;53.540;10.042;2023-05-20T10:49:49;18.80;43.60
4386;DHT22;2207;53.540;10.042;2023-05-20T10:52:16;18.70;43.60
4386;DHT22;2207;53.540;10.042;2023-05-20T10:54:43;18.70;43.80
4386;DHT22;2207;53.540;10.042;2023-05-20T10:57:10;18.90;43.80
4386;DHT22;2207;53.540;10.042;2023-05-20T10:59:37;19.20;43.30
4386;DHT22;2207;53.540;10.042;2023-05-20T11:02:04;19.40;42.60
4386;DHT22;2207;53.540;10.042;2023-05-20T11:04:32;19.50;42.10
4386;DHT22;2207;53.540;10.042;2023-05-20T11:06:59;19.60;41.70
4386;DHT22;2207;53.540;10.042;2023-05-20T11:09:28;19.50;42.60
4386;DHT22;2207;53.540;10.042;2023-05-20T11:11:56;19.20;42.20
4386;DHT22;2207;53.540;10.042;2023-05-20T11:14:23;19.00;42.90
4386;DHT22;2207;53.540;10.042;2023-05-20T11:16:51;19.00;43.10
4386;DHT22;2207;53.540;10.042;2023-05-20T11:19:19;19.20;42.60
4386;DHT22;2207;53.540;10.042;2023-05-20T11:21:47;19.20;42.60
4386;DHT22;2207;53.540;10.042;2023-05-20T11:24:23;19.00;42.60
4386;DHT22;2207;53.540;10.042;2023-05-20T11:26:51;19.00;42.90
4386;DHT22;2207;53.540;10.042;2023-05-20T11:29:18;19.30;42.60
4386;DHT22;2207;53.540;10.042;2023-05-20T11:31:47;19.30;42.10
4386;DHT22;2207;53.540;10.042;2023-05-20T11:34:14;19.10;42.60
4386;DHT22;2207;53.540;10.042;2023-05-20T11:36:41;19.20;42.60
4386;DHT22;2207;53.540;10.042;2023-05-20T11:39:10;19.20;42.30
4386;DHT22;2207;53.540;10.042;2023-05-20T11:41:38;19.00;42.50
4386;DHT22;2207;53.540;10.042;2023-05-20T11:44:09;18.90;42.80
4386;DHT22;2207;53.540;10.042;2023-05-20T11:46:40;18.70;43.20
4386;DHT22;2207;53.540;10.042;2023-05-20T11:49:07;18.60;43.50
4386;DHT22;2207;53.540;10.042;2023-05-20T11:51:34;18.40;43.90
4386;DHT22;2207;53.540;10.042;2023-05-20T11:54:04;18.30;44.10
4386;DHT22;2207;53.540;10.042;2023-05-20T11:56:33;18.30;44.30
4386;DHT22;2207;53.540;10.042;2023-05-20T11:59:01;18.10;44.50
4386;DHT22;2207;53.540;10.042;2023-05-20T12:01:29;18.00;44.80
4386;DHT22;2207;53.540;10.042;2023-05-20T12:03:58;18.00;45.10
4386;DHT22;2207;53.540;10.042;2023-05-20T12:06:24;18.00;45.10
4386;DHT22;2207;53.540;10.042;2023-05-20T12:08:51;18.00;45.20
4386;DHT22;2207;53.540;10.042;2023-05-20T12:11:18;18.20;44.90
4386;DHT22;2207;53.540;10.042;2023-05-20T12:13:47;18.40;44.10
4386;DHT22;2207;53.540;10.042;2023-05-20T12:16:14;18.60;43.90
4386;DHT22;2207;53.540;10.042;2023-05-20T12:18:41;18.70;43.80
4386;DHT22;2207;53.540;10.042;2023-05-20T12:21:08;18.60;43.80
4386;DHT22;2207;53.540;10.042;2023-05-20T12:23:34;18.40;44.60
4386;DHT22;2207;53.540;10.042;2023-05-20T12:26:01;18.20;45.30
4386;DHT22;2207;53.540;10.042;2023-05-20T12:28:28;18.40;45.10
4386;DHT22;2207;53.540;10.042;2023-05-20T12:30:57;18.70;44.80
4386;DHT22;2207;53.540;10.042;2023-05-20T12:33:24;19.10;44.30
4386;DHT22;2207;53.540;10.042;2023-05-20T12:35:52;19.50;43.50
4386;DHT22;2207;53.540;10.042;2023-05-20T12:38:19;19.50;43.00
4386;DHT22;2207;53.540;10.042;2023-05-20T12:40:45;19.50;43.20
4386;DHT22;2207;53.540;10.042;2023-05-20T12:43:12;19.50;42.80
4386;DHT22;2207;53.540;10.042;2023-05-20T12:45:39;19.50;42.70
4386;DHT22;2207;53.540;10.042;2023-05-20T12:48:07;19.20;42.90
4386;DHT22;2207;53.540;10.042;2023-05-20T12:50:33;19.10;43.30
4386;DHT22;2207;53.540;10.042;2023-05-20T12:53:00;19.30;43.50
4386;DHT22;2207;53.540;10.042;2023-05-20T12:55:27;19.30;43.00
4386;DHT22;2207;53.540;10.042;2023-05-20T12:57:54;19.30;43.30
4386;DHT22;2207;53.540;10.042;2023-05-20T13:00:21;19.50;43.00
4386;DHT22;2207;53.540;10.042;2023-05-20T13:02:48;19.70;42.70
4386;DHT22;2207;53.540;10.042;2023-05-20T13:05:16;19.80;42.60
4386;DHT22;2207;53.540;10.042;2023-05-20T13:07:43;19.90;42.40
4386;DHT22;2207;53.540;10.042;2023-05-20T13:10:10;20.00;42.00
4386;DHT22;2207;53.540;10.042;2023-05-20T13:12:37;19.90;42.10
4386;DHT22;2207;53.540;10.042;2023-05-20T13:15:05;20.00;41.80
4386;DHT22;2207;53.540;10.042;2023-05-20T13:17:31;19.70;41.90
4386;DHT22;2207;53.540;10.042;2023-05-20T13:19:58;19.50;42.30
4386;DHT22;2207;53.540;10.042;2023-05-20T13:22:26;19.30;42.70
4386;DHT22;2207;53.540;10.042;2023-05-20T13:24:53;19.30;43.20
4386;DHT22;2207;53.540;10.042;2023-05-20T13:27:19;19.50;43.30
4386;DHT22;2207;53.540;10.042;2023-05-20T13:29:46;19.80;42.80
4386;DHT22;2207;53.540;10.042;2023-05-20T13:32:13;20.10;42.20
4386;DHT22;2207;53.540;10.042;2023-05-20T13:34:40;20.00;41.80
4386;DHT22;2207;53.540;10.042;2023-05-20T13:37:06;19.90;41.90
4386;DHT22;2207;53.540;10.042;2023-05-20T13:39:34;19.70;42.60
4386;DHT22;2207;53.540;10.042;2023-05-20T13:42:02;19.50;43.00
4386;DHT22;2207;53.540;10.042;2023-05-20T13:44:29;19.50;43.20
4386;DHT22;2207;53.540;10.042;2023-05-20T13:46:55;19.40;43.30
4386;DHT22;2207;53.540;10.042;2023-05-20T13:49:22;19.30;43.70
4386;DHT22;2207;53.540;10.042;2023-05-20T13:51:50;19.10;43.90
4386;DHT22;2207;53.540;10.042;2023-05-20T13:54:16;19.10;44.20
4386;DHT22;2207;53.540;10.042;2023-05-20T13:56:44;19.00;44.30
4386;DHT22;2207;53.540;10.042;2023-05-20T13:59:11;19.10;44.30
4386;DHT22;2207;53.540;10.042;2023-05-20T14:01:38;19.20;44.20
4386;DHT22;2207;53.540;10.042;2023-05-20T14:04:09;19.10;44.20
4386;DHT22;2207;53.540;10.042;2023-05-20T14:06:36;19.10;44.50
4386;DHT22;2207;53.540;10.042;2023-05-20T14:09:04;19.00;44.40
4386;DHT22;2207;53.540;10.042;2023-05-20T14:11:32;19.00;44.70
4386;DHT22;2207;53.540;10.042;2023-05-20T14:14:00;18.80;44.90
4386;DHT22;2207;53.540;10.042;2023-05-20T14:16:27;18.90;45.10
4386;DHT22;2207;53.540;10.042;2023-05-20T14:18:53;18.90;45.10
4386;DHT22;2207;53.540;10.042;2023-05-20T14:21:20;19.00;45.10
4386;DHT22;2207;53.540;10.042;2023-05-20T14:23:47;19.10;44.90
4386;DHT22;2207;53.540;10.042;2023-05-20T14:26:13;19.10;44.80
4386;DHT22;2207;53.540;10.042;2023-05-20T14:28:40;19.10;45.00
4386;DHT22;2207;53.540;10.042;2023-05-20T14:31:08;19.10;45.00
4386;DHT22;2207;53.540;10.042;2023-05-20T14:33:35;19.00;45.10
4386;DHT22;2207;53.540;10.042;2023-05-20T14:36:02;18.90;45.30
4386;DHT22;2207;53.540;10.042;2023-05-20T14:38:29;18.70;45.70
4386;DHT22;2207;53.540;10.042;2023-05-20T14:40:56;18.70;46.10
4386;DHT22;2207;53.540;10.042;2023-05-20T14:43:23;18.50;46.40
4386;DHT22;2207;53.540;10.042;2023-05-20T14:45:51;18.50;46.50
4386;DHT22;2207;53.540;10.042;2023-05-20T14:48:19;18.50;46.90
4386;DHT22;2207;53.540;10.042;2023-05-20T14:50:45;18.50;46.90
4386;DHT22;2207;53.540;10.042;2023-05-20T14:53:12;18.40;47.10
4386;DHT22;2207;53.540;10.042;2023-05-20T14:55:38;18.30;47.50
4386;DHT22;2207;53.540;10.042;2023-05-20T14:58:08;18.20;47.70
4386;DHT22;2207;53.540;10.042;2023-05-20T15:00:35;18.10;47.90
4386;DHT22;2207;53.540;10.042;2023-05-20T15:03:02;18.00;48.30
4386;DHT22;2207;53.540;10.042;2023-05-20T15:05:30;18.00;48.40
4386;DHT22;2207;53.540;10.042;2023-05-20T15:07:57;18.10;48.40
4386;DHT22;2207;53.540;10.042;2023-05-20T15:10:23;18.00;48.90
4386;DHT22;2207;53.540;10.042;2023-05-20T15:12:50;17.90;50.10
4386;DHT22;2207;53.540;10.042;2023-05-20T15:15:19;17.90;50.70
4386;DHT22;2207;53.540;10.042;2023-05-20T15:17:45;17.90;51.20
4386;DHT22;2207;53.540;10.042;2023-05-20T15:20:12;18.00;51.50
4386;DHT22;2207;53.540;10.042;2023-05-20T15:22:41;18.00;51.30
4386;DHT22;2207;53.540;10.042;2023-05-20T15:25:08;18.10;51.30
4386;DHT22;2207;53.540;10.042;2023-05-20T15:27:35;18.20;51.10
4386;DHT22;2207;53.540;10.042;2023-05-20T15:30:03;18.20;50.90
4386;DHT22;2207;53.540;10.042;2023-05-20T15:32:29;18.10;50.90
4386;DHT22;2207;53.540;10.042;2023-05-20T15:34:56;18.00;51.00
4386;DHT22;2207;53.540;10.042;2023-05-20T15:37:23;17.90;51.30
4386;DHT22;2207;53.540;10.042;2023-05-20T15:39:51;17.80;51.40
4386;DHT22;2207;53.540;10.042;2023-05-20T15:42:17;17.70;51.80
4386;DHT22;2207;53.540;10.042;2023-05-20T15:44:46;17.50;52.20
4386;DHT22;2207;53.540;10.042;2023-05-20T15:47:13;17.40;52.60
4386;DHT22;2207;53.540;10.042;2023-05-20T15:49:39;17.30;53.10